Flight Track Log - Related Links

Times and Time Zones

All times are in EDT time to prevent confusion due to time zone crossing. See the N3511F flight status page for this flight to view local times or setup timezone preferences in your user account.

Time Position Orientation Groundspeed Altitude Reporting Facility
EDT Latitude Longitude Course Direction KTS MPH feet Rate Location/Type
Wed 03:43:43 PM 41.8703 -71.0072 146° Southeast 72 83 600  Level Boston Center
Wed 03:44:49 PM 41.8408 -70.9911 158° South 100 115 1,400 694 Climbing Boston Center
Wed 03:45:44 PM 41.8178 -70.9747 152° Southeast 108 124 2,000 626 Climbing Boston Center
Wed 03:46:00 PM 41.7352 -70.8990 143° Southeast  Level Estimated
Wed 03:46:44 PM 41.7906 -70.9561 153° Southeast 111 128 2,600  Level Boston Center
Wed 03:47:00 PM 41.7157 -70.8814 146° Southeast  Level FlightAware Approximate
Wed 03:47:45 PM 41.7631 -70.9344 150° Southeast 114 131 3,100  Level Boston Center
Wed 03:48:00 PM 41.6963 -70.8638 146° Southeast  Level FlightAware Approximate
Wed 03:49:00 PM 41.6768 -70.8462 146° Southeast  Level FlightAware Approximate
Wed 03:49:00 PM 41.7388 -70.9122 146° Southeast  Level FlightAware Approximate
Wed 03:56:00 PM 41.6036 -70.7869 143° Southeast  Level FlightAware Approximate
Wed 03:57:00 PM 41.5848 -70.7681 143° Southeast  Level FlightAware Approximate
Wed 03:58:00 PM 41.5660 -70.7493 143° Southeast  Level FlightAware Approximate
Wed 03:59:00 PM 41.5472 -70.7305 143° Southeast  Level FlightAware Approximate
Wed 04:00:00 PM 41.5277 -70.7133 156° South  Level FlightAware Approximate
Wed 04:01:00 PM 41.5062 -70.7004 156° South  Level FlightAware Approximate
Wed 04:02:00 PM 41.4848 -70.6875 156° South  Level FlightAware Approximate
Wed 04:03:00 PM 41.4634 -70.6747 156° South  Level FlightAware Approximate
Wed 04:04:00 PM 41.4429 -70.6596 143° Southeast  Level FlightAware Approximate
Wed 04:05:00 PM 41.4241 -70.6408 143° Southeast  Level FlightAware Approximate
Wed 04:06:00 PM 41.4053 -70.6220 143° Southeast  Level FlightAware Approximate
Wed 04:07:00 PM 41.3934 -70.6139 143° Southeast  Level Estimated
Wed 04:08:00 PM 41.3934 -70.6139 North  Level Estimated
Wed 04:09:00 PM 41.3934 -70.6139 North  Level Estimated
Wed 04:10:00 PM 41.3934 -70.6139 North  Level Estimated
Wed 04:11:00 PM 41.3934 -70.6139 North  Level Estimated
Wed 04:12:00 PM 41.3934 -70.6139 North  Level Estimated
Wed 04:13:00 PM 41.3934 -70.6139 North  Level Estimated
Wed 04:14:00 PM 41.3934 -70.6139 North  Level Estimated

Login

Don't have an account? Register now (free) for customized features, flight alerts, and more!